Time;durP1;ratioP1;P1;durP2;ratioP2;P2;SDS_P1;SDS_P2;PMS_P1;PMS_P2;Temp;Humidity;BMP_temperature;BMP_pressure;BME280_temperature;BME280_humidity;BME280_pressure;Samples;Min_cycle;Max_cycle;Signal;HPM_P1;HPM_P2
2021/04/18 00:00:18;;;;;;;8.38;4.22;;;24.90;63.20;;;;;;5006296;28;20157;-75
2021/04/18 00:02:50;;;;;;;4.28;3.13;;;24.90;62.10;;;;;;5006279;28;20037;-77
2021/04/18 00:05:20;;;;;;;5.55;2.70;;;24.90;64.20;;;;;;5005368;28;20038;-77
2021/04/18 00:07:48;;;;;;;4.82;3.20;;;25.20;62.40;;;;;;5002889;28;20029;-81
2021/04/18 00:10:16;;;;;;;5.28;3.22;;;25.40;63.20;;;;;;5009341;28;20131;-75
2021/04/18 00:12:44;;;;;;;5.47;2.85;;;25.60;61.60;;;;;;5004720;28;20032;-75
2021/04/18 00:15:14;;;;;;;5.63;2.70;;;26.00;61.30;;;;;;5002341;28;20046;-76
2021/04/18 00:17:42;;;;;;;3.58;2.70;;;26.00;60.80;;;;;;5002350;28;21369;-77
2021/04/18 00:20:11;;;;;;;5.55;2.28;;;25.00;59.60;;;;;;5006709;28;20030;-73
2021/04/18 00:22:43;;;;;;;5.28;2.50;;;25.20;61.90;;;;;;5005673;28;20476;-73
2021/04/18 00:25:16;;;;;;;4.60;2.33;;;26.00;62.50;;;;;;5005653;28;20503;-74
2021/04/18 00:27:45;;;;;;;6.65;2.65;;;26.40;58.40;;;;;;5003410;28;20541;-77
2021/04/18 00:30:16;;;;;;;5.57;2.50;;;26.50;57.10;;;;;;5006219;28;20026;-76
2021/04/18 00:32:44;;;;;;;9.48;2.45;;;26.70;57.40;;;;;;5004428;28;20733;-73
2021/04/18 00:35:13;;;;;;;4.35;2.50;;;27.00;56.00;;;;;;5005242;28;20029;-74
2021/04/18 00:37:41;;;;;;;6.40;2.88;;;26.50;55.00;;;;;;5005558;28;20030;-77
2021/04/18 00:40:18;;;;;;;6.40;2.92;;;25.80;59.40;;;;;;5001942;28;20484;-73
2021/04/18 00:42:45;;;;;;;7.05;2.95;;;26.20;56.60;;;;;;5001989;28;20029;-73
2021/04/18 00:45:14;;;;;;;8.18;2.70;;;26.20;56.00;;;;;;5006195;28;20041;-76
2021/04/18 00:48:00;;;;;;;7.35;2.97;;;26.60;56.70;;;;;;5002228;28;20124;-73
2021/04/18 00:50:33;;;;;;;5.63;2.40;;;27.10;55.20;;;;;;5003125;28;20030;-73
2021/04/18 00:53:06;;;;;;;4.93;2.53;;;27.80;54.80;;;;;;5005326;28;20034;-74
2021/04/18 00:55:44;;;;;;;6.28;2.75;;;28.00;55.50;;;;;;5000650;28;20077;-76
2021/04/18 00:58:12;;;;;;;4.40;2.08;;;28.00;52.20;;;;;;5001791;28;20169;-75
2021/04/18 01:00:41;;;;;;;6.50;2.15;;;27.60;55.00;;;;;;5002139;28;20172;-73
2021/04/18 01:03:08;;;;;;;5.20;2.15;;;27.30;52.00;;;;;;5001678;28;20042;-75
2021/04/18 01:05:36;;;;;;;3.90;2.10;;;27.70;53.40;;;;;;5001090;28;20321;-76
2021/04/18 01:08:09;;;;;;;4.43;2.80;;;28.30;53.60;;;;;;5001545;28;20026;-75
2021/04/18 01:10:37;;;;;;;4.63;2.22;;;28.80;49.90;;;;;;5003624;28;20388;-74
2021/04/18 01:13:05;;;;;;;5.53;2.05;;;28.80;47.50;;;;;;5004680;28;20041;-73
2021/04/18 01:15:32;;;;;;;4.18;1.90;;;29.00;49.40;;;;;;4997989;28;20209;-73
2021/04/18 01:18:00;;;;;;;7.35;2.72;;;28.90;49.00;;;;;;5006428;28;20029;-76
2021/04/18 01:20:27;;;;;;;5.05;2.40;;;28.80;49.30;;;;;;5009166;28;20030;-74
2021/04/18 01:22:55;;;;;;;9.40;2.78;;;28.40;47.30;;;;;;5005249;28;20119;-73
2021/04/18 01:25:22;;;;;;;4.93;3.28;;;28.90;49.90;;;;;;5002217;28;20053;-72
2021/04/18 01:27:50;;;;;;;4.75;2.47;;;28.90;47.90;;;;;;4999291;28;20041;-75
2021/04/18 01:30:25;;;;;;;6.47;3.83;;;29.00;48.60;;;;;;5003387;28;20026;-74
2021/04/18 01:32:55;;;;;;;9.20;2.85;;;28.90;46.00;;;;;;5001315;28;20080;-72
2021/04/18 01:35:24;;;;;;;4.38;2.33;;;28.70;47.90;;;;;;5005207;28;20041;-72
2021/04/18 01:37:52;;;;;;;8.15;2.65;;;28.30;47.60;;;;;;4999141;28;20065;-72
2021/04/18 01:40:21;;;;;;;6.03;2.65;;;27.90;49.50;;;;;;5003090;28;20052;-72
2021/04/18 01:42:50;;;;;;;6.70;2.33;;;28.00;48.70;;;;;;4999838;28;20527;-73
2021/04/18 01:45:19;;;;;;;4.57;2.65;;;28.30;47.30;;;;;;5002701;28;20124;-72
2021/04/18 01:47:47;;;;;;;5.90;2.80;;;28.50;46.60;;;;;;5001365;28;20050;-71
2021/04/18 01:50:18;;;;;;;3.83;2.88;;;29.00;47.00;;;;;;5000849;28;20126;-77
2021/04/18 01:52:47;;;;;;;7.80;2.67;;;28.90;45.80;;;;;;5004336;28;20091;-76
2021/04/18 01:55:16;;;;;;;4.47;2.15;;;28.60;44.90;;;;;;5001456;28;21043;-72
2021/04/18 01:57:44;;;;;;;3.75;2.22;;;28.80;44.90;;;;;;5000369;28;20441;-73
2021/04/18 02:00:13;;;;;;;4.85;2.15;;;28.90;46.30;;;;;;5007591;28;20034;-75
2021/04/18 02:02:41;;;;;;;7.50;2.40;;;29.10;43.40;;;;;;5002792;28;20033;-73
2021/04/18 02:05:09;;;;;;;5.28;2.58;;;29.40;45.50;;;;;;5003397;28;20050;-74
2021/04/18 02:07:37;;;;;;;4.32;2.30;;;29.30;43.20;;;;;;5003890;28;20076;-72
2021/04/18 02:10:05;;;;;;;4.53;2.13;;;29.40;44.90;;;;;;5001276;28;20038;-75
2021/04/18 02:12:32;;;;;;;5.22;2.70;;;29.50;43.00;;;;;;5002777;28;20026;-72
2021/04/18 02:15:00;;;;;;;4.88;2.17;;;28.90;41.90;;;;;;5000373;28;20064;-76
2021/04/18 02:17:27;;;;;;;5.40;2.67;;;28.30;44.80;;;;;;5005781;28;20504;-77
2021/04/18 02:19:55;;;;;;;6.10;2.33;;;28.60;44.30;;;;;;5003625;28;20022;-73
2021/04/18 02:22:22;;;;;;;6.22;2.30;;;28.40;40.90;;;;;;5001567;28;20108;-74
2021/04/18 02:24:50;;;;;;;3.25;2.08;;;27.90;43.30;;;;;;5001176;28;20038;-75
2021/04/18 02:27:17;;;;;;;3.42;1.90;;;28.10;42.40;;;;;;5001678;28;20025;-76
2021/04/18 02:29:45;;;;;;;3.03;1.60;;;28.20;40.80;;;;;;5001707;28;20076;-76
2021/04/18 02:32:12;;;;;;;4.18;2.35;;;28.40;40.50;;;;;;5001023;28;20029;-75
2021/04/18 02:34:40;;;;;;;3.42;1.73;;;28.20;40.30;;;;;;4999326;28;20480;-76
2021/04/18 02:37:07;;;;;;;4.90;2.08;;;28.30;44.00;;;;;;5003075;28;20084;-73
2021/04/18 02:39:34;;;;;;;3.95;1.80;;;28.40;41.30;;;;;;5003363;28;20037;-77
2021/04/18 02:42:02;;;;;;;4.57;1.85;;;28.90;47.00;;;;;;5001794;28;20026;-75
2021/04/18 02:44:29;;;;;;;6.72;1.98;;;29.50;45.00;;;;;;5000253;28;20038;-72
2021/04/18 02:46:57;;;;;;;5.72;1.65;;;29.60;43.10;;;;;;4998476;28;20719;-74
2021/04/18 02:49:25;;;;;;;5.18;1.77;;;29.70;41.20;;;;;;5000131;28;20033;-74
2021/04/18 02:51:52;;;;;;;3.30;1.63;;;29.40;39.50;;;;;;5000187;28;20085;-72
2021/04/18 02:54:20;;;;;;;4.57;2.25;;;29.90;41.60;;;;;;5000800;28;20034;-76
2021/04/18 02:56:47;;;;;;;5.35;2.15;;;29.40;40.00;;;;;;5001891;28;20111;-76
2021/04/18 02:59:15;;;;;;;5.90;1.90;;;28.80;41.30;;;;;;5001623;28;20448;-77
2021/04/18 03:01:42;;;;;;;5.00;2.50;;;28.30;41.00;;;;;;5002550;28;20327;-76
2021/04/18 03:04:10;;;;;;;4.55;2.08;;;28.80;45.80;;;;;;5003346;28;20520;-75
2021/04/18 03:06:37;;;;;;;3.60;1.90;;;29.40;43.00;;;;;;5003665;28;20029;-76
2021/04/18 03:09:05;;;;;;;4.03;2.38;;;29.40;40.50;;;;;;5003037;28;20115;-75
2021/04/18 03:11:32;;;;;;;3.80;2.05;;;29.70;43.40;;;;;;5007346;28;20119;-72
2021/04/18 03:14:01;;;;;;;4.40;1.52;;;29.60;42.50;;;;;;5007874;28;20389;-76
2021/04/18 03:16:28;;;;;;;4.75;1.92;;;29.50;40.50;;;;;;5004188;28;20384;-76
2021/04/18 03:18:55;;;;;;;4.18;1.55;;;29.40;40.40;;;;;;5004617;28;20050;-73
2021/04/18 03:21:23;;;;;;;4.60;1.67;;;29.40;40.70;;;;;;5003861;28;20025;-75
2021/04/18 03:23:50;;;;;;;8.00;1.90;;;29.70;39.90;;;;;;5005009;28;20034;-74
2021/04/18 03:26:18;;;;;;;9.40;2.00;;;29.60;40.60;;;;;;5005409;28;20106;-74
2021/04/18 03:28:45;;;;;;;5.45;2.25;;;29.30;41.30;;;;;;5001398;28;20041;-72
2021/04/18 03:31:12;;;;;;;7.03;2.13;;;29.00;41.00;;;;;;5019557;28;20055;-72
2021/04/18 03:33:41;;;;;;;3.40;1.67;;;28.40;40.60;;;;;;5001409;28;20062;-73
2021/04/18 03:36:10;;;;;;;7.57;2.17;;;27.90;41.80;;;;;;5004113;28;20048;-72
2021/04/18 03:38:38;;;;;;;4.70;1.90;;;27.90;41.90;;;;;;5002771;28;20022;-73
2021/04/18 03:41:06;;;;;;;5.18;1.70;;;27.80;41.90;;;;;;5002072;28;20033;-74
2021/04/18 03:43:34;;;;;;;5.53;3.25;;;27.80;41.80;;;;;;5002513;28;20045;-75
2021/04/18 03:46:01;;;;;;;7.60;2.15;;;27.70;42.20;;;;;;5003864;28;20437;-73
2021/04/18 03:48:28;;;;;;;4.28;1.50;;;27.70;43.70;;;;;;5002085;28;20079;-73
2021/04/18 03:50:56;;;;;;;6.82;2.17;;;27.90;43.30;;;;;;5004199;28;20033;-76
2021/04/18 03:53:23;;;;;;;4.90;2.63;;;27.90;42.10;;;;;;5004753;28;20091;-73
2021/04/18 03:55:51;;;;;;;5.45;2.40;;;27.80;42.30;;;;;;5004604;28;20471;-75
2021/04/18 03:58:18;;;;;;;4.45;2.00;;;27.50;42.20;;;;;;5002733;28;20037;-73
2021/04/18 04:00:45;;;;;;;5.15;1.85;;;27.40;42.70;;;;;;5004170;28;20058;-76
2021/04/18 04:03:13;;;;;;;1.75;1.48;;;27.50;43.60;;;;;;5002989;28;20041;-77
2021/04/18 04:05:40;;;;;;;3.55;1.85;;;27.70;42.30;;;;;;5000880;28;20105;-74
2021/04/18 04:08:12;;;;;;;4.20;1.58;;;27.60;42.00;;;;;;5002835;28;20041;-74
2021/04/18 04:10:39;;;;;;;2.28;1.70;;;27.30;40.20;;;;;;5006369;28;20022;-75
2021/04/18 04:13:07;;;;;;;7.18;2.53;;;27.00;42.70;;;;;;5002252;28;20029;-74
2021/04/18 04:15:34;;;;;;;6.90;2.60;;;27.10;42.90;;;;;;5003733;28;20048;-73
2021/04/18 04:18:02;;;;;;;4.72;2.50;;;27.00;42.00;;;;;;5002631;28;20038;-72
2021/04/18 04:20:29;;;;;;;3.90;1.95;;;27.10;42.00;;;;;;5004394;28;20041;-75
2021/04/18 04:22:56;;;;;;;4.43;1.85;;;27.00;43.90;;;;;;5006156;28;20034;-72
2021/04/18 04:25:24;;;;;;;3.83;2.50;;;26.40;41.50;;;;;;5004180;28;20042;-75
2021/04/18 04:27:51;;;;;;;4.05;1.50;;;26.40;43.60;;;;;;5004812;28;20025;-75
2021/04/18 04:30:19;;;;;;;4.72;1.75;;;26.50;41.60;;;;;;5002574;28;20034;-74
2021/04/18 04:32:47;;;;;;;5.10;1.80;;;26.20;43.20;;;;;;5004503;28;20033;-75
2021/04/18 04:35:15;;;;;;;4.45;1.88;;;26.30;43.80;;;;;;5005344;28;20041;-73
2021/04/18 04:37:45;;;;;;;4.93;1.73;;;26.40;44.00;;;;;;5004310;28;20029;-76
2021/04/18 04:40:13;;;;;;;6.55;2.15;;;26.30;41.20;;;;;;5003049;28;20112;-73
2021/04/18 04:42:41;;;;;;;3.67;1.70;;;25.70;42.90;;;;;;5002725;28;20030;-75
2021/04/18 04:45:09;;;;;;;2.17;1.15;;;25.30;44.70;;;;;;5004482;28;20108;-74
2021/04/18 04:47:36;;;;;;;2.80;1.60;;;25.20;43.70;;;;;;5009219;28;20496;-72
2021/04/18 04:50:04;;;;;;;3.88;1.20;;;25.50;42.70;;;;;;5013477;28;20476;-73
2021/04/18 04:52:31;;;;;;;3.42;1.52;;;25.60;42.40;;;;;;5003888;28;20396;-72
2021/04/18 04:54:59;;;;;;;6.13;1.67;;;25.50;42.50;;;;;;5003322;28;20452;-73
2021/04/18 04:57:26;;;;;;;4.60;1.48;;;25.30;43.10;;;;;;5002633;28;20425;-76
2021/04/18 04:59:54;;;;;;;7.55;1.70;;;25.00;44.30;;;;;;5002278;28;20452;-73
2021/04/18 05:02:21;;;;;;;5.60;2.22;;;24.50;45.70;;;;;;5004378;28;20145;-73
2021/04/18 05:04:49;;;;;;;4.97;1.65;;;24.60;46.10;;;;;;5000560;28;20030;-72
2021/04/18 05:07:16;;;;;;;4.57;1.98;;;24.30;45.60;;;;;;5001316;28;20066;-72
2021/04/18 05:09:43;;;;;;;7.70;2.53;;;23.70;47.10;;;;;;5001580;28;20025;-72
2021/04/18 05:12:11;;;;;;;3.17;1.20;;;23.80;47.90;;;;;;5005334;28;20368;-72
2021/04/18 05:14:39;;;;;;;7.55;2.42;;;24.00;47.60;;;;;;5007572;28;20500;-72
2021/04/18 05:17:06;;;;;;;3.67;1.45;;;24.30;46.40;;;;;;5003743;28;20029;-73
2021/04/18 05:19:34;;;;;;;3.90;1.55;;;24.20;47.10;;;;;;5002861;28;20495;-73
2021/04/18 05:22:01;;;;;;;4.35;1.60;;;24.30;47.80;;;;;;5005743;28;20044;-74
2021/04/18 05:24:29;;;;;;;5.72;1.60;;;24.50;47.50;;;;;;5006763;28;20402;-74
2021/04/18 05:26:56;;;;;;;5.68;2.38;;;24.40;48.30;;;;;;5008037;28;20128;-76
2021/04/18 05:29:24;;;;;;;4.35;2.15;;;24.30;47.10;;;;;;5004704;28;20034;-74
2021/04/18 05:31:53;;;;;;;4.40;1.92;;;23.90;47.00;;;;;;5002834;28;20113;-74
2021/04/18 05:34:24;;;;;;;5.75;1.90;;;23.50;47.40;;;;;;5004458;28;20036;-76
2021/04/18 05:36:52;;;;;;;5.10;1.77;;;23.40;48.60;;;;;;5003142;28;20545;-76
2021/04/18 05:39:19;;;;;;;3.75;1.52;;;23.60;48.20;;;;;;5004707;28;20030;-73
2021/04/18 05:41:50;;;;;;;6.82;1.42;;;23.90;47.70;;;;;;5007237;28;20040;-72
2021/04/18 05:44:17;;;;;;;4.85;1.85;;;24.00;46.90;;;;;;5002474;28;20050;-72
2021/04/18 05:46:45;;;;;;;4.50;1.90;;;24.00;47.30;;;;;;5008486;28;20386;-73
2021/04/18 05:49:12;;;;;;;7.28;1.80;;;23.90;47.20;;;;;;5007992;28;20109;-73
2021/04/18 05:51:40;;;;;;;4.20;1.55;;;24.00;47.00;;;;;;5006157;28;20025;-74
2021/04/18 05:54:08;;;;;;;7.45;1.80;;;24.10;46.70;;;;;;5004277;28;20041;-76
2021/04/18 05:56:36;;;;;;;4.53;2.55;;;24.20;48.20;;;;;;5003952;28;20134;-76
2021/04/18 05:59:04;;;;;;;4.10;1.50;;;24.10;47.40;;;;;;5007049;28;20488;-76
2021/04/18 06:01:33;;;;;;;4.47;1.65;;;24.00;47.30;;;;;;5008099;28;20041;-76
2021/04/18 06:04:00;;;;;;;3.28;1.40;;;24.10;47.90;;;;;;5005398;28;20128;-74
2021/04/18 06:06:28;;;;;;;5.10;1.70;;;24.00;47.30;;;;;;5007410;28;20021;-77
2021/04/18 06:08:56;;;;;;;8.63;2.20;;;23.90;46.70;;;;;;5017287;28;20103;-75
2021/04/18 06:11:23;;;;;;;5.05;2.47;;;23.80;47.20;;;;;;5009813;28;20022;-75
2021/04/18 06:13:50;;;;;;;6.47;1.77;;;23.80;48.10;;;;;;5004742;28;20044;-78
2021/04/18 06:16:18;;;;;;;4.57;1.50;;;23.90;47.80;;;;;;5006826;28;20076;-77
2021/04/18 06:18:46;;;;;;;3.15;1.30;;;24.10;47.50;;;;;;5004126;28;20061;-76
2021/04/18 06:21:13;;;;;;;2.97;1.23;;;24.20;47.00;;;;;;5008642;28;20026;-77
2021/04/18 06:23:41;;;;;;;4.45;1.38;;;24.30;47.90;;;;;;5005254;28;20069;-76
2021/04/18 06:26:08;;;;;;;3.20;1.50;;;24.10;47.10;;;;;;5004728;28;20187;-77
2021/04/18 06:28:36;;;;;;;3.90;1.60;;;23.90;48.20;;;;;;5007678;28;20084;-74
2021/04/18 06:31:05;;;;;;;4.38;1.67;;;23.80;47.70;;;;;;5005558;28;20029;-75
2021/04/18 06:33:32;;;;;;;2.70;1.35;;;23.70;47.10;;;;;;5008544;28;20104;-74
2021/04/18 06:35:59;;;;;;;3.70;1.70;;;23.60;47.60;;;;;;5001743;28;20042;-72
2021/04/18 06:38:27;;;;;;;6.55;1.58;;;23.50;47.90;;;;;;5004444;28;20030;-75
2021/04/18 06:40:55;;;;;;;5.50;1.80;;;23.40;48.20;;;;;;5007631;28;20030;-75
2021/04/18 06:43:23;;;;;;;4.55;1.58;;;23.30;48.60;;;;;;5007917;28;20429;-76
2021/04/18 06:45:54;;;;;;;2.38;1.60;;;23.20;48.90;;;;;;5005146;28;20038;-76
2021/04/18 06:48:22;;;;;;;4.05;1.83;;;23.00;49.60;;;;;;5003496;28;20026;-75
2021/04/18 06:50:50;;;;;;;4.43;1.50;;;22.80;49.60;;;;;;5004276;28;20037;-73
2021/04/18 06:53:17;;;;;;;7.50;1.58;;;22.90;49.80;;;;;;5000629;28;20040;-74
2021/04/18 06:55:45;;;;;;;4.13;1.60;;;22.90;49.60;;;;;;4999748;28;20033;-77
2021/04/18 06:58:12;;;;;;;2.75;1.50;;;22.90;50.20;;;;;;5004128;28;20049;-74
2021/04/18 07:00:40;;;;;;;2.35;1.40;;;22.80;49.80;;;;;;5000624;28;20121;-76
2021/04/18 07:03:22;;;;;;;3.25;1.42;;;22.80;49.70;;;;;;5000421;28;20073;-77
2021/04/18 07:05:51;;;;;;;4.22;1.48;;;22.70;50.00;;;;;;5004194;28;20129;-73
2021/04/18 07:08:26;;;;;;;5.60;2.47;;;22.60;51.10;;;;;;5000482;28;20116;-76
2021/04/18 07:11:09;;;;;;;4.55;2.20;;;22.40;53.10;;;;;;5004150;28;20042;-74
2021/04/18 07:13:38;;;;;;;6.65;2.45;;;22.40;54.50;;;;;;5002888;28;20164;-74
2021/04/18 07:16:30;;;;;;;3.83;2.05;;;22.30;56.10;;;;;;5007393;28;20054;-76
2021/04/18 07:18:58;;;;;;;5.63;3.00;;;22.10;57.30;;;;;;5004205;28;20500;-76
2021/04/18 07:21:46;;;;;;;4.07;2.30;;;21.90;58.10;;;;;;5008206;28;20029;-76
2021/04/18 07:24:14;;;;;;;3.72;2.47;;;21.80;59.00;;;;;;5006054;28;20505;-75
2021/04/18 07:26:41;;;;;;;14.13;2.28;;;21.80;59.50;;;;;;5001855;28;20401;-75
2021/04/18 07:29:21;;;;;;;5.70;3.00;;;21.70;60.50;;;;;;5009308;28;20030;-76
2021/04/18 07:31:51;;;;;;;8.27;3.55;;;21.60;62.30;;;;;;5006626;28;20026;-77
2021/04/18 07:34:23;;;;;;;6.10;3.47;;;21.50;63.50;;;;;;5000263;28;20079;-75
2021/04/18 07:37:14;;;;;;;6.38;2.70;;;21.30;64.70;;;;;;5004079;28;20033;-76
2021/04/18 07:39:46;;;;;;;6.72;2.67;;;21.10;65.90;;;;;;5003800;28;20083;-75
2021/04/18 07:42:58;;;;;;;7.95;3.13;;;20.90;66.40;;;;;;5007263;28;20432;-74
2021/04/18 07:45:25;;;;;;;7.85;3.05;;;20.70;68.50;;;;;;5003442;28;20049;-73
2021/04/18 07:47:53;;;;;;;8.63;3.40;;;20.50;70.10;;;;;;5003481;28;20084;-73
2021/04/18 07:50:23;;;;;;;4.95;2.85;;;20.40;71.50;;;;;;5005085;28;20072;-72
2021/04/18 07:52:51;;;;;;;8.98;3.67;;;20.30;72.20;;;;;;5022890;28;20053;-73
2021/04/18 07:55:20;;;;;;;3.65;2.63;;;20.40;72.70;;;;;;5005549;28;20125;-72
2021/04/18 07:57:49;;;;;;;8.38;3.50;;;20.40;73.40;;;;;;5004642;28;20029;-74
2021/04/18 08:00:17;;;;;;;6.03;2.55;;;20.40;73.70;;;;;;5004563;28;20033;-74
2021/04/18 08:02:52;;;;;;;6.10;2.95;;;20.50;74.00;;;;;;5004649;28;20022;-75
2021/04/18 08:05:23;;;;;;;8.20;3.40;;;20.50;74.30;;;;;;5005703;28;20049;-73
2021/04/18 08:08:09;;;;;;;4.50;2.90;;;20.50;74.90;;;;;;5003461;28;20187;-78
2021/04/18 08:10:41;;;;;;;9.57;3.53;;;20.40;75.40;;;;;;5006271;28;20037;-76
2021/04/18 08:13:13;;;;;;;7.68;3.67;;;20.30;75.70;;;;;;5007977;28;20021;-77
2021/04/18 08:15:57;;;;;;;10.98;3.70;;;20.20;76.50;;;;;;5007296;28;20045;-76
2021/04/18 08:18:40;;;;;;;9.35;3.70;;;20.00;77.30;;;;;;5019519;28;20499;-77
2021/04/18 08:21:48;;;;;;;5.00;3.28;;;19.70;78.50;;;;;;5007837;28;20014;-76
2021/04/18 08:24:19;;;;;;;4.35;3.10;;;19.70;78.90;;;;;;5009248;28;20484;-77
2021/04/18 08:27:16;;;;;;;8.38;3.50;;;19.60;79.50;;;;;;5007714;28;20029;-77
2021/04/18 08:30:05;;;;;;;8.30;3.08;;;19.60;79.50;;;;;;5007668;28;20038;-73
2021/04/18 08:32:48;;;;;;;7.22;3.35;;;19.50;79.60;;;;;;5007570;28;20038;-74
2021/04/18 08:35:16;;;;;;;10.57;3.47;;;19.60;79.60;;;;;;5008021;28;20022;-73
2021/04/18 08:37:44;;;;;;;7.07;3.72;;;19.60;79.50;;;;;;5002461;28;20057;-74
2021/04/18 08:40:12;;;;;;;17.92;4.63;;;19.60;79.80;;;;;;5008108;28;20680;-75
2021/04/18 08:42:40;;;;;;;4.97;3.38;;;19.60;79.80;;;;;;5003346;28;20105;-76
2021/04/18 08:45:08;;;;;;;6.03;2.80;;;19.70;79.50;;;;;;5009101;28;20465;-76
2021/04/18 08:47:37;;;;;;;10.02;3.92;;;19.70;79.20;;;;;;5008126;28;20033;-73
2021/04/18 08:50:16;;;;;;;6.82;3.42;;;19.60;79.90;;;;;;5004400;28;20034;-76
2021/04/18 08:52:44;;;;;;;6.75;3.65;;;19.60;79.40;;;;;;5005257;28;20120;-74
2021/04/18 08:55:14;;;;;;;7.80;3.65;;;19.60;79.80;;;;;;5007793;28;20108;-74
2021/04/18 08:57:41;;;;;;;6.10;3.47;;;19.50;80.30;;;;;;5004246;28;20037;-72
2021/04/18 09:00:15;;;;;;;6.50;4.18;;;19.50;80.20;;;;;;5002132;28;20024;-75
2021/04/18 09:02:42;;;;;;;9.77;3.45;;;19.50;80.50;;;;;;5004869;28;20033;-73
2021/04/18 09:05:17;;;;;;;9.07;3.83;;;19.50;80.40;;;;;;5007337;28;20038;-75
2021/04/18 09:07:44;;;;;;;5.03;3.22;;;19.40;80.70;;;;;;5004530;28;20357;-73
2021/04/18 09:10:14;;;;;;;8.80;3.80;;;19.30;81.10;;;;;;5004465;28;20104;-75
2021/04/18 09:12:45;;;;;;;10.07;3.50;;;19.10;81.70;;;;;;5007633;28;20029;-72
2021/04/18 09:15:13;;;;;;;6.72;3.85;;;19.00;82.00;;;;;;5005019;28;20060;-73
2021/04/18 09:17:41;;;;;;;5.43;3.63;;;19.00;82.90;;;;;;5004527;28;20033;-73
2021/04/18 09:20:10;;;;;;;8.38;3.92;;;18.90;83.30;;;;;;5002957;28;20032;-71
2021/04/18 09:22:39;;;;;;;9.25;4.35;;;18.90;83.30;;;;;;5007941;28;20121;-71
2021/04/18 09:25:12;;;;;;;7.60;4.20;;;18.70;83.90;;;;;;5006574;28;20046;-73
2021/04/18 09:27:42;;;;;;;9.95;4.22;;;18.70;84.20;;;;;;5004125;28;20107;-74
2021/04/18 09:30:17;;;;;;;8.70;3.97;;;18.50;84.50;;;;;;5004885;28;20116;-76
2021/04/18 09:32:54;;;;;;;6.80;3.67;;;18.40;85.10;;;;;;5005104;28;20480;-76
2021/04/18 09:35:26;;;;;;;6.97;4.20;;;18.20;85.70;;;;;;5002763;28;20030;-75
2021/04/18 09:38:12;;;;;;;5.15;3.17;;;18.10;86.30;;;;;;5004322;28;20540;-76
2021/04/18 09:40:40;;;;;;;8.73;4.20;;;17.90;87.20;;;;;;5002348;28;20535;-76
2021/04/18 09:43:08;;;;;;;8.32;4.18;;;17.80;87.50;;;;;;5002528;28;20042;-76
2021/04/18 09:45:36;;;;;;;5.32;3.63;;;17.70;87.50;;;;;;5003278;28;20037;-75
2021/04/18 09:48:15;;;;;;;8.45;4.10;;;17.70;87.20;;;;;;5007303;28;20643;-76
2021/04/18 09:50:43;;;;;;;7.43;4.03;;;17.50;87.90;;;;;;5000605;28;20068;-74
2021/04/18 09:53:24;;;;;;;8.90;4.60;;;17.40;88.50;;;;;;5002182;28;20109;-74
2021/04/18 09:56:06;;;;;;;5.43;3.95;;;17.30;88.40;;;;;;4999164;28;20088;-75
2021/04/18 09:58:37;;;;;;;9.27;4.82;;;17.30;89.40;;;;;;5001230;28;20564;-75
2021/04/18 10:01:22;;;;;;;7.15;3.78;;;17.20;89.10;;;;;;5004960;28;20038;-76
2021/04/18 10:03:49;;;;;;;8.27;4.80;;;17.10;89.20;;;;;;5001816;28;20595;-76
2021/04/18 10:06:17;;;;;;;10.60;5.72;;;17.00;89.70;;;;;;5004474;28;20043;-76
2021/04/18 10:08:53;;;;;;;8.70;4.85;;;17.00;90.00;;;;;;5017249;28;20076;-76
2021/04/18 10:11:22;;;;;;;10.35;5.53;;;17.00;90.10;;;;;;5000355;28;20504;-77
2021/04/18 10:13:51;;;;;;;10.98;5.25;;;17.00;90.00;;;;;;5001501;28;20118;-77
2021/04/18 10:16:29;;;;;;;8.43;4.40;;;17.00;90.00;;;;;;5000775;28;20044;-76
2021/04/18 10:19:21;;;;;;;9.68;4.13;;;16.90;90.10;;;;;;5004942;28;20442;-76
2021/04/18 10:22:10;;;;;;;10.85;4.85;;;16.80;90.20;;;;;;5001764;28;20030;-76
2021/04/18 10:24:52;;;;;;;9.07;5.68;;;16.80;90.50;;;;;;5002070;28;20436;-77
2021/04/18 10:27:25;;;;;;;9.07;6.22;;;16.70;90.60;;;;;;5001832;28;20022;-76
2021/04/18 10:29:54;;;;;;;11.88;6.22;;;16.70;90.70;;;;;;5001837;28;20038;-78
2021/04/18 10:32:22;;;;;;;11.65;6.18;;;16.70;90.90;;;;;;5002889;28;20110;-76
2021/04/18 10:34:53;;;;;;;8.20;5.10;;;16.60;91.00;;;;;;5005030;28;20148;-76
2021/04/18 10:37:21;;;;;;;8.57;6.07;;;16.60;91.00;;;;;;5001264;28;20105;-76
2021/04/18 10:39:49;;;;;;;9.38;6.32;;;16.60;91.10;;;;;;5000282;28;20030;-74
2021/04/18 10:42:17;;;;;;;9.85;5.43;;;16.60;91.20;;;;;;5003415;28;20377;-75
2021/04/18 10:44:45;;;;;;;12.90;5.95;;;16.50;91.20;;;;;;5002308;28;20077;-75
2021/04/18 10:47:16;;;;;;;11.05;6.82;;;16.50;91.40;;;;;;5000113;28;20030;-77
2021/04/18 10:49:49;;;;;;;9.75;5.63;;;16.40;91.50;;;;;;4999864;28;20037;-76
2021/04/18 10:52:17;;;;;;;8.35;5.15;;;16.30;91.50;;;;;;5001889;28;20034;-75
2021/04/18 10:54:47;;;;;;;10.13;5.65;;;16.40;91.50;;;;;;5004484;28;20034;-75
2021/04/18 10:57:14;;;;;;;21.50;6.57;;;16.40;91.40;;;;;;4999402;28;20492;-76
2021/04/18 10:59:42;;;;;;;12.13;5.88;;;16.40;91.50;;;;;;5002053;28;20033;-76
2021/04/18 11:02:09;;;;;;;12.48;5.90;;;16.40;91.40;;;;;;5002870;28;20026;-76
2021/04/18 11:04:36;;;;;;;9.30;5.85;;;16.40;91.50;;;;;;4983757;28;20038;-75
2021/04/18 11:07:04;;;;;;;9.18;5.57;;;16.40;91.40;;;;;;4997082;28;20084;-75
2021/04/18 11:09:32;;;;;;;11.95;5.90;;;16.40;91.50;;;;;;4997924;28;20018;-76
2021/04/18 11:11:59;;;;;;;12.02;6.88;;;16.30;91.40;;;;;;4998207;28;20030;-75
2021/04/18 11:14:27;;;;;;;14.20;6.55;;;16.30;91.50;;;;;;5001396;28;20512;-76
2021/04/18 11:16:55;;;;;;;14.07;7.57;;;16.30;91.70;;;;;;4996121;28;20111;-76
2021/04/18 11:19:22;;;;;;;12.65;6.68;;;16.20;91.60;;;;;;5002163;28;20022;-74
2021/04/18 11:21:50;;;;;;;11.77;5.80;;;16.30;91.60;;;;;;5005368;28;20038;-76
2021/04/18 11:24:17;;;;;;;9.30;5.75;;;16.20;91.60;;;;;;5010172;28;20042;-76
2021/04/18 11:26:44;;;;;;;9.68;5.10;;;16.10;91.50;;;;;;5010216;28;20116;-75
2021/04/18 11:29:12;;;;;;;7.97;5.97;;;16.20;91.70;;;;;;5009506;28;20060;-74
2021/04/18 11:31:40;;;;;;;7.60;5.63;;;16.10;91.70;;;;;;5009168;28;20456;-75
2021/04/18 11:34:07;;;;;;;8.55;5.28;;;16.00;91.70;;;;;;5003098;28;20448;-76
2021/04/18 11:36:35;;;;;;;9.30;6.10;;;15.90;91.90;;;;;;5000488;28;20033;-76
2021/04/18 11:39:03;;;;;;;11.90;6.13;;;15.90;92.00;;;;;;5003169;28;20421;-76
2021/04/18 11:41:34;;;;;;;15.73;6.60;;;15.80;91.90;;;;;;5003209;28;20093;-76
2021/04/18 11:44:07;;;;;;;14.60;8.25;;;15.70;91.90;;;;;;5004007;28;20071;-77
2021/04/18 11:46:35;;;;;;;10.73;6.32;;;15.60;91.90;;;;;;5002090;28;20038;-76
2021/04/18 11:49:03;;;;;;;11.90;6.63;;;15.60;92.00;;;;;;5020024;28;20092;-74
2021/04/18 11:51:30;;;;;;;9.00;6.13;;;15.60;92.10;;;;;;5003982;28;20030;-75
2021/04/18 11:53:57;;;;;;;12.25;6.25;;;15.50;92.30;;;;;;5009192;28;20073;-76
2021/04/18 11:56:25;;;;;;;11.15;7.70;;;15.50;92.30;;;;;;5003569;28;20038;-76
2021/04/18 11:58:52;;;;;;;9.52;5.70;;;15.50;92.30;;;;;;5002028;28;20041;-76
2021/04/18 12:01:20;;;;;;;11.20;6.40;;;15.50;92.40;;;;;;5001619;28;20036;-77
2021/04/18 12:03:47;;;;;;;11.85;7.05;;;15.50;92.40;;;;;;5004597;28;20022;-76
2021/04/18 12:06:15;;;;;;;8.13;5.55;;;15.40;92.50;;;;;;5006497;28;20054;-77
2021/04/18 12:08:43;;;;;;;8.75;5.28;;;15.40;92.50;;;;;;5005005;28;20038;-78
2021/04/18 12:11:11;;;;;;;12.43;6.35;;;15.30;92.50;;;;;;5004906;28;20029;-75
2021/04/18 12:13:38;;;;;;;7.68;5.65;;;15.20;92.60;;;;;;4998974;28;20092;-74
2021/04/18 12:16:06;;;;;;;7.35;5.18;;;15.20;92.60;;;;;;5006741;28;20058;-76
2021/04/18 12:18:33;;;;;;;9.38;5.53;;;15.10;92.50;;;;;;5006057;28;20116;-76
2021/04/18 12:21:01;;;;;;;9.85;6.00;;;15.10;92.60;;;;;;5008791;28;20388;-75
2021/04/18 12:23:28;;;;;;;8.00;5.78;;;15.00;92.50;;;;;;5008469;28;20101;-76
2021/04/18 12:25:56;;;;;;;6.50;4.90;;;14.90;92.80;;;;;;5009023;28;20053;-77
2021/04/18 12:28:24;;;;;;;8.55;6.13;;;14.90;92.80;;;;;;5007410;28;20030;-78
2021/04/18 12:30:52;;;;;;;11.23;5.72;;;14.90;92.30;;;;;;5010418;28;20030;-76
2021/04/18 12:33:19;;;;;;;9.13;4.90;;;14.80;92.60;;;;;;5008275;28;20033;-75
2021/04/18 12:35:47;;;;;;;8.65;4.63;;;14.70;92.30;;;;;;5004889;28;20120;-76
2021/04/18 12:38:14;;;;;;;9.23;5.20;;;14.70;92.50;;;;;;5010725;28;20030;-78
2021/04/18 12:40:42;;;;;;;8.35;5.32;;;14.60;92.50;;;;;;5008543;28;20326;-78
2021/04/18 12:43:09;;;;;;;10.07;5.75;;;14.60;92.30;;;;;;5010668;28;20431;-79
2021/04/18 12:45:37;;;;;;;8.00;4.93;;;14.50;92.90;;;;;;5006613;28;20080;-78
2021/04/18 12:48:04;;;;;;;9.10;5.20;;;14.30;92.90;;;;;;5009087;28;20487;-77
2021/04/18 12:50:32;;;;;;;7.55;5.05;;;14.20;93.10;;;;;;5008909;28;20025;-77
2021/04/18 12:52:59;;;;;;;9.23;5.85;;;14.20;93.20;;;;;;5009971;28;20030;-77
2021/04/18 12:55:27;;;;;;;9.00;6.28;;;14.20;93.10;;;;;;5008610;28;20041;-76
2021/04/18 12:57:54;;;;;;;14.70;5.82;;;14.20;93.10;;;;;;5006329;28;20456;-76